createdAt,value
2023-05-08T00:04:46.212Z,76657.28
2023-05-08T00:14:48.285Z,76671.47
2023-05-08T00:24:50.839Z,76683.59
2023-05-08T00:34:54.921Z,76685.63
2023-05-08T00:44:57.166Z,76687.66
2023-05-08T00:55:02.232Z,76697.78
2023-05-08T01:05:09.641Z,76716.00
2023-05-08T01:15:17.867Z,76730.16
2023-05-08T01:25:41.345Z,76742.31
2023-05-08T01:35:54.435Z,76742.31
2023-05-08T01:46:05.780Z,76754.47
2023-05-08T01:56:18.636Z,76774.69
2023-05-08T02:06:22.660Z,76782.78
2023-05-08T02:16:32.099Z,76780.78
2023-05-08T02:26:37.358Z,76790.91
2023-05-08T02:36:43.444Z,76788.88
2023-05-08T02:47:13.727Z,76799.00
2023-05-08T02:57:58.435Z,76794.94
2023-05-08T03:08:04.078Z,76801.00
2023-05-08T03:18:12.092Z,76778.75
2023-05-08T03:28:15.170Z,76697.78
2023-05-08T03:38:20.317Z,76562.16
2023-05-08T03:48:24.187Z,76481.19
2023-05-08T03:58:54.878Z,76367.81
2023-05-08T04:09:12.219Z,76296.97
2023-05-08T04:19:21.250Z,76240.31
2023-05-08T04:29:26.121Z,76153.28
2023-05-08T04:39:30.547Z,76108.75
2023-05-08T04:49:36.635Z,76027.78
2023-05-08T04:59:41.922Z,76019.69
2023-05-08T05:09:49.085Z,76054.09
2023-05-08T05:19:54.560Z,76041.97
2023-05-08T05:29:57.843Z,75989.34
2023-05-08T05:40:03.744Z,75920.53
2023-05-08T05:50:10.834Z,75859.81
2023-05-08T06:00:13.545Z,75912.44
2023-05-08T06:10:23.612Z,75954.94
2023-05-08T06:20:33.245Z,75999.47
2023-05-08T06:30:36.082Z,75938.75
2023-05-08T06:40:46.163Z,75882.06
2023-05-08T06:50:52.035Z,75821.34
2023-05-08T07:00:59.876Z,75766.72
2023-05-08T07:11:01.963Z,75807.19
2023-05-08T07:21:07.412Z,75758.63
2023-05-08T07:31:15.192Z,75651.34
2023-05-08T07:41:20.913Z,75693.84
2023-05-08T07:51:25.537Z,75643.25
2023-05-08T08:01:30.130Z,75635.16
2023-05-08T08:11:32.295Z,75730.28
2023-05-08T08:21:44.875Z,75742.41
2023-05-08T08:31:49.261Z,75677.66
2023-05-08T08:41:51.428Z,75665.53
2023-05-08T08:51:56.654Z,75588.63
2023-05-08T09:02:07.444Z,75677.66
2023-05-08T09:12:15.881Z,75900.28
2023-05-08T09:22:17.994Z,75904.34
2023-05-08T09:32:23.352Z,75863.84
2023-05-08T09:42:26.273Z,75833.50
2023-05-08T09:52:31.743Z,75758.63
2023-05-08T10:02:34.482Z,75736.34
2023-05-08T10:12:42.732Z,75736.34
2023-05-08T10:22:49.353Z,75689.81
2023-05-08T10:32:59.816Z,75697.91
2023-05-08T10:43:06.014Z,75691.81
2023-05-08T10:53:20.439Z,75621.00
2023-05-08T11:03:32.854Z,75663.50
2023-05-08T11:13:43.385Z,75580.53
2023-05-08T11:23:59.407Z,75602.78
2023-05-08T11:34:01.544Z,75691.81
2023-05-08T11:44:08.023Z,75685.75
2023-05-08T11:54:13.814Z,75681.72
2023-05-08T12:04:23.037Z,75706.00
2023-05-08T12:14:30.076Z,75685.75
2023-05-08T12:24:39.356Z,75639.22
2023-05-08T12:34:46.242Z,75580.53
2023-05-08T12:44:53.837Z,75596.72
2023-05-08T12:55:00.496Z,75618.97
2023-05-08T13:05:06.089Z,75552.19
2023-05-08T13:15:11.386Z,75531.94
2023-05-08T13:25:14.026Z,75552.19
2023-05-08T13:35:16.691Z,75503.63
2023-05-08T13:45:19.027Z,75503.63
2023-05-08T13:55:23.703Z,75475.28
2023-05-08T14:05:25.864Z,75491.47
2023-05-08T14:15:36.954Z,75487.44
2023-05-08T14:25:41.089Z,75457.06
2023-05-08T14:35:48.953Z,75473.25
2023-05-08T14:45:51.160Z,75477.31
2023-05-08T14:56:02.523Z,75491.47
2023-05-08T15:06:06.554Z,75503.63
2023-05-08T15:16:09.016Z,75495.53
2023-05-08T15:26:11.824Z,75497.56
2023-05-08T15:36:14.393Z,75529.94
2023-05-08T15:46:19.143Z,75487.44
2023-05-08T15:56:26.014Z,75495.53
2023-05-08T16:06:28.135Z,75499.56
2023-05-08T16:16:38.041Z,75519.81
2023-05-08T16:26:43.074Z,75521.84
2023-05-08T16:36:45.904Z,75521.84
2023-05-08T16:46:49.628Z,75536.00
2023-05-08T16:56:56.620Z,75548.13
2023-05-08T17:07:00.258Z,75566.34
2023-05-08T17:17:08.310Z,75564.34
2023-05-08T17:27:13.396Z,75576.47
2023-05-08T17:37:15.645Z,75596.72
2023-05-08T17:47:17.835Z,75618.97
2023-05-08T17:57:20.033Z,75635.16
2023-05-08T18:07:23.827Z,75649.31
2023-05-08T18:17:31.154Z,75673.63
2023-05-08T18:27:35.938Z,75695.88
2023-05-08T18:37:38.232Z,75710.03
2023-05-08T18:47:40.492Z,75732.31
2023-05-08T18:57:45.240Z,75748.50
2023-05-08T19:07:55.397Z,75766.72
2023-05-08T19:17:57.692Z,75778.84
2023-05-08T19:27:59.949Z,75786.94
2023-05-08T19:38:04.603Z,75799.09
2023-05-08T19:48:17.318Z,75813.25
2023-05-08T19:58:20.305Z,75831.47
2023-05-08T20:08:27.294Z,75849.69
2023-05-08T20:18:29.665Z,75873.97
2023-05-08T20:28:35.220Z,75890.16
2023-05-08T20:38:42.535Z,75904.34
2023-05-08T20:48:48.533Z,75918.50
2023-05-08T20:58:50.550Z,75932.66
2023-05-08T21:08:55.364Z,75952.91
2023-05-08T21:19:07.106Z,75956.94
2023-05-08T21:29:12.648Z,75965.03
2023-05-08T21:39:17.778Z,75969.09
2023-05-08T21:49:19.860Z,75956.94
2023-05-08T21:59:27.435Z,75952.91
2023-05-08T22:09:32.166Z,75950.88
2023-05-08T22:19:35.302Z,75965.03
2023-05-08T22:29:37.544Z,75967.06
2023-05-08T22:39:39.688Z,75965.03
2023-05-08T22:49:44.805Z,75971.13
2023-05-08T22:59:49.046Z,75971.13
2023-05-08T23:09:51.095Z,75989.34
2023-05-08T23:19:53.220Z,76025.75
2023-05-08T23:30:01.685Z,76043.97
2023-05-08T23:40:04.182Z,76039.94
2023-05-08T23:50:09.060Z,76041.97
